Time;durP1;ratioP1;P1;durP2;ratioP2;P2;SDS_P1;SDS_P2;PMS_P1;PMS_P2;Temp;Humidity;BMP_temperature;BMP_pressure;BME280_temperature;BME280_humidity;BME280_pressure;Samples;Min_cycle;Max_cycle;Signal;HPM_P1;HPM_P2
2022/04/02 00:00:55;;;;;;;7.40;1.67;;;;;;;11.27;59.44;93726.53;5107753;28;20524;-67
2022/04/02 00:03:21;;;;;;;6.88;1.95;;;;;;;11.27;58.40;93715.00;5107537;28;20102;-67
2022/04/02 00:05:46;;;;;;;3.03;1.58;;;;;;;11.25;58.79;93713.34;5105703;28;20028;-67
2022/04/02 00:08:12;;;;;;;2.10;1.60;;;;;;;11.23;58.29;93714.63;5106926;28;20452;-67
2022/04/02 00:10:37;;;;;;;3.20;1.30;;;;;;;11.06;57.83;93719.75;5107596;28;20194;-68
2022/04/02 00:13:03;;;;;;;6.18;1.80;;;;;;;11.17;57.74;93731.63;5107131;28;20028;-68
2022/04/02 00:15:28;;;;;;;2.13;1.20;;;;;;;11.17;57.28;93727.03;5107814;28;20030;-67
2022/04/02 00:17:54;;;;;;;4.78;1.60;;;;;;;11.19;56.92;93738.38;5107256;28;20047;-67
2022/04/02 00:20:19;;;;;;;3.17;1.40;;;;;;;11.19;56.60;93733.03;5105752;28;20043;-68
2022/04/02 00:25:29;;;;;;;2.42;1.23;;;;;;;11.13;55.86;93758.06;5107148;28;20456;-67
2022/04/02 00:27:55;;;;;;;2.95;1.25;;;;;;;11.10;56.13;93761.19;5107781;28;20023;-68
2022/04/02 00:30:20;;;;;;;3.85;1.40;;;;;;;11.06;56.55;93762.69;5106943;28;20106;-68
2022/04/02 00:32:46;;;;;;;3.55;1.40;;;;;;;11.05;56.61;93761.03;5107176;28;20450;-68
2022/04/02 00:35:11;;;;;;;3.65;1.20;;;;;;;11.07;56.06;93767.00;5107693;28;20084;-67
2022/04/02 00:37:36;;;;;;;2.75;1.13;;;;;;;11.08;56.03;93774.00;5107094;28;20414;-68
2022/04/02 00:40:02;;;;;;;2.40;1.10;;;;;;;11.12;55.60;93773.31;5107381;28;20379;-68
2022/04/02 00:42:27;;;;;;;2.45;1.30;;;;;;;11.10;55.63;93788.03;5105505;28;20032;-68
2022/04/02 00:44:53;;;;;;;1.85;1.10;;;;;;;11.08;55.24;93787.41;5107700;28;20034;-68
2022/04/02 00:47:20;;;;;;;3.90;1.10;;;;;;;11.09;55.25;93789.06;5106634;28;20019;-68
2022/04/02 00:49:46;;;;;;;3.03;1.10;;;;;;;11.10;55.33;93788.84;5106817;28;20039;-68
2022/04/02 00:52:12;;;;;;;2.30;1.08;;;;;;;11.08;55.49;93774.00;5106797;28;20020;-67
2022/04/02 00:54:38;;;;;;;1.90;1.00;;;;;;;11.10;55.94;93755.81;5106943;28;20023;-67
2022/04/02 00:57:04;;;;;;;2.10;1.02;;;;;;;11.00;55.98;93749.09;5105140;28;20046;-67
2022/04/02 00:59:30;;;;;;;2.63;1.10;;;;;;;11.07;55.69;93765.16;5106323;28;20028;-67
2022/04/02 01:01:56;;;;;;;3.90;1.00;;;;;;;10.98;55.23;93761.91;5088657;28;20427;-68
2022/04/02 01:04:21;;;;;;;2.85;1.08;;;;;;;10.98;55.33;93774.50;5106115;28;20432;-68
2022/04/02 01:06:47;;;;;;;2.30;0.90;;;;;;;11.05;54.87;93769.06;5107044;28;20513;-68
2022/04/02 01:09:12;;;;;;;2.42;1.20;;;;;;;11.05;54.83;93780.63;5104617;28;20020;-68
2022/04/02 01:11:39;;;;;;;1.40;0.98;;;;;;;11.02;54.74;93780.25;5105383;28;20494;-68
2022/04/02 01:14:05;;;;;;;1.88;1.00;;;;;;;10.93;55.21;93782.41;5106052;28;20414;-66
2022/04/02 01:16:32;;;;;;;2.30;1.23;;;;;;;10.93;55.55;93785.09;5104951;28;20482;-68
2022/04/02 01:18:58;;;;;;;2.42;1.25;;;;;;;10.96;55.00;93792.69;5088078;28;20547;-68
2022/04/02 01:21:23;;;;;;;3.45;1.27;;;;;;;10.95;54.81;93805.28;5105770;28;20044;-67
2022/04/02 01:23:48;;;;;;;3.58;1.30;;;;;;;11.00;54.36;93809.97;5105473;28;20478;-67
2022/04/02 01:26:14;;;;;;;6.07;1.42;;;;;;;10.91;54.74;93808.63;5105499;28;20512;-68
2022/04/02 01:28:40;;;;;;;2.38;1.55;;;;;;;10.96;54.68;93817.63;5106409;28;20410;-68
2022/04/02 01:31:06;;;;;;;3.72;1.63;;;;;;;10.97;55.30;93813.94;5105568;28;20031;-68
2022/04/02 01:33:32;;;;;;;2.25;1.30;;;;;;;10.97;55.63;93824.66;5104847;28;20043;-67
2022/04/02 01:36:01;;;;;;;3.10;1.20;;;;;;;10.93;56.35;93828.81;5105903;28;20422;-67
2022/04/02 01:38:27;;;;;;;3.58;1.67;;;;;;;10.98;56.21;93834.34;5105762;28;20055;-68
2022/04/02 01:40:52;;;;;;;5.65;2.85;;;;;;;11.00;55.63;93843.00;5105140;28;20031;-67
2022/04/02 01:43:18;;;;;;;6.43;2.92;;;;;;;10.95;55.49;93842.00;5105234;28;20426;-68
2022/04/02 01:45:43;;;;;;;6.20;2.90;;;;;;;10.95;54.92;93837.47;5106377;28;20023;-67
2022/04/02 01:48:09;;;;;;;3.58;1.70;;;;;;;10.86;54.79;93838.78;5105440;28;20028;-67
2022/04/02 01:50:34;;;;;;;5.53;1.60;;;;;;;10.81;54.77;93826.03;5105664;28;20028;-68
2022/04/02 01:52:59;;;;;;;7.65;1.95;;;;;;;10.79;54.67;93830.78;5104243;28;20039;-68
2022/04/02 01:55:25;;;;;;;4.50;2.03;;;;;;;10.79;54.78;93829.94;5105196;28;20031;-68
2022/04/02 01:57:51;;;;;;;6.68;1.65;;;;;;;10.75;55.11;93827.69;5105776;28;20043;-68
2022/04/02 02:00:16;;;;;;;4.30;1.35;;;;;;;10.76;55.17;93836.56;5105059;28;20027;-68
2022/04/02 02:02:42;;;;;;;5.43;1.48;;;;;;;10.70;54.87;93829.41;5106091;28;20027;-67
2022/04/02 02:05:08;;;;;;;4.70;1.42;;;;;;;10.64;55.27;93825.72;5104586;28;20028;-67
2022/04/02 02:07:33;;;;;;;4.70;1.45;;;;;;;10.53;55.52;93831.81;5105533;28;20058;-68
2022/04/02 02:09:58;;;;;;;3.17;1.58;;;;;;;10.56;55.60;93836.72;5105160;28;20027;-68
2022/04/02 02:12:24;;;;;;;3.60;1.52;;;;;;;10.55;55.60;93827.03;5105320;28;20024;-68
2022/04/02 02:14:50;;;;;;;3.83;1.38;;;;;;;10.43;55.97;93826.88;5105693;28;20046;-69
2022/04/02 02:17:15;;;;;;;3.85;1.40;;;;;;;10.41;56.71;93831.63;5104838;28;20038;-67
2022/04/02 02:19:41;;;;;;;4.93;1.40;;;;;;;10.36;56.34;93832.28;5105398;28;20048;-67
2022/04/02 02:22:06;;;;;;;3.60;1.23;;;;;;;10.34;56.50;93826.31;5104645;28;20031;-67
2022/04/02 02:24:32;;;;;;;6.65;1.38;;;;;;;10.37;56.24;93824.00;5105661;28;20026;-67
2022/04/02 02:26:58;;;;;;;2.35;0.95;;;;;;;10.29;56.31;93826.94;5104702;28;20106;-68
2022/04/02 02:29:23;;;;;;;2.47;1.10;;;;;;;10.20;56.51;93828.25;5102929;28;20558;-67
2022/04/02 02:31:49;;;;;;;5.78;1.63;;;;;;;10.16;56.58;93833.19;5104870;28;20028;-68
2022/04/02 02:36:59;;;;;;;2.50;0.90;;;;;;;10.13;56.37;93831.78;5105532;28;20062;-68
2022/04/02 02:39:24;;;;;;;7.78;1.38;;;;;;;10.10;56.45;93832.22;5103185;28;20466;-67
2022/04/02 02:41:49;;;;;;;5.10;1.10;;;;;;;10.14;57.21;93821.84;5105707;28;20020;-67
2022/04/02 02:44:15;;;;;;;3.55;1.00;;;;;;;10.08;57.08;93822.72;5104780;28;20081;-67
2022/04/02 02:46:40;;;;;;;3.55;1.30;;;;;;;10.09;57.30;93819.03;5103570;28;20076;-67
2022/04/02 02:49:06;;;;;;;6.38;1.30;;;;;;;10.09;57.47;93824.38;5104674;28;20031;-67
2022/04/02 02:51:31;;;;;;;7.93;1.70;;;;;;;10.12;56.67;93830.13;5104668;28;20089;-67
2022/04/02 02:53:56;;;;;;;7.32;1.60;;;;;;;10.10;56.49;93820.66;5105240;28;20031;-68
2022/04/02 02:56:22;;;;;;;6.13;1.42;;;;;;;10.16;56.80;93819.00;5104385;28;20027;-67
2022/04/02 02:58:47;;;;;;;5.72;1.80;;;;;;;10.17;56.47;93820.63;5105550;28;20327;-67
2022/04/02 03:01:13;;;;;;;5.57;1.42;;;;;;;10.10;55.83;93807.25;5103207;28;20024;-67
2022/04/02 03:03:38;;;;;;;5.90;2.17;;;;;;;10.10;55.32;93807.25;5105115;28;20024;-67
2022/04/02 03:06:04;;;;;;;3.85;1.48;;;;;;;10.14;55.00;93821.84;5104665;28;20031;-67
2022/04/02 03:08:30;;;;;;;5.53;1.52;;;;;;;10.12;55.23;93811.38;5103605;28;20069;-68
2022/04/02 03:10:55;;;;;;;1.90;1.20;;;;;;;10.19;54.95;93823.94;5104897;28;20454;-69
2022/04/02 03:13:21;;;;;;;2.10;1.25;;;;;;;10.22;54.76;93829.66;5103510;28;20031;-68
2022/04/02 03:15:46;;;;;;;3.78;1.20;;;;;;;10.29;53.79;93831.47;5104911;28;20471;-68
2022/04/02 03:18:11;;;;;;;1.10;0.90;;;;;;;10.32;53.18;93812.28;5104365;28;20032;-68
2022/04/02 03:20:37;;;;;;;3.30;1.30;;;;;;;10.32;53.34;93823.00;5104833;28;20482;-68
2022/04/02 03:23:03;;;;;;;1.85;1.13;;;;;;;10.36;53.28;93814.34;5104562;28;20032;-68
2022/04/02 03:25:29;;;;;;;2.67;1.10;;;;;;;10.39;53.32;93821.13;5104919;28;20031;-68
2022/04/02 03:27:55;;;;;;;2.97;1.27;;;;;;;10.37;53.46;93832.06;5086354;28;20024;-69
2022/04/02 03:30:21;;;;;;;1.70;1.00;;;;;;;10.40;53.41;93828.13;5104772;28;20019;-68
2022/04/02 03:32:47;;;;;;;1.88;1.08;;;;;;;10.40;53.32;93830.78;5103333;28;20026;-67
2022/04/02 03:35:14;;;;;;;1.88;1.00;;;;;;;10.43;52.86;93845.63;5104504;28;20042;-68
2022/04/02 03:37:41;;;;;;;1.73;1.02;;;;;;;10.42;52.88;93847.50;5104731;28;20027;-68
2022/04/02 03:40:08;;;;;;;2.60;1.10;;;;;;;10.44;53.10;93842.75;5103044;28;20028;-68
2022/04/02 03:42:34;;;;;;;3.10;1.08;;;;;;;10.52;52.78;93844.38;5108610;28;20033;-67
2022/04/02 03:45:00;;;;;;;3.50;1.10;;;;;;;10.48;52.99;93837.78;5108046;28;20098;-67
2022/04/02 03:47:25;;;;;;;3.92;1.00;;;;;;;10.46;52.73;93829.97;5108112;28;20114;-68
2022/04/02 03:49:51;;;;;;;2.67;0.98;;;;;;;10.51;52.77;93842.75;5108250;28;20024;-69
2022/04/02 03:52:17;;;;;;;2.47;1.20;;;;;;;10.51;52.68;93856.94;5107873;28;20020;-68
2022/04/02 03:54:42;;;;;;;1.25;0.90;;;;;;;10.56;52.36;93842.88;5106771;28;20081;-68
2022/04/02 03:57:09;;;;;;;3.30;1.10;;;;;;;10.59;52.26;93847.03;5107439;28;20028;-68
2022/04/02 03:59:34;;;;;;;2.60;1.20;;;;;;;10.58;52.23;93842.66;5107255;28;20475;-68
2022/04/02 04:02:00;;;;;;;2.88;1.00;;;;;;;10.59;52.05;93849.69;5088893;28;20099;-68
2022/04/02 04:04:26;;;;;;;3.25;1.10;;;;;;;10.54;52.78;93863.75;5108132;28;20034;-68
2022/04/02 04:06:52;;;;;;;1.27;0.90;;;;;;;10.62;52.60;93860.00;5107259;28;20039;-68
2022/04/02 04:09:18;;;;;;;1.27;0.90;;;;;;;10.65;52.27;93889.03;5107571;28;20024;-67
2022/04/02 04:11:43;;;;;;;1.80;0.95;;;;;;;10.62;52.65;93889.47;5107925;27;20027;-67
2022/04/02 04:14:09;;;;;;;1.02;0.70;;;;;;;10.63;51.50;93891.94;5107359;28;20023;-68
2022/04/02 04:16:35;;;;;;;1.77;0.90;;;;;;;10.62;52.42;93892.16;5106777;28;20023;-68
2022/04/02 04:19:00;;;;;;;1.55;0.88;;;;;;;10.66;52.19;93903.25;5106622;28;20030;-67
2022/04/02 04:21:26;;;;;;;1.60;1.10;;;;;;;10.63;53.20;93905.34;5107740;28;20028;-68
2022/04/02 04:23:51;;;;;;;2.50;1.10;;;;;;;10.63;54.04;93909.88;5105559;28;20472;-69
2022/04/02 04:26:17;;;;;;;2.88;1.00;;;;;;;10.66;52.91;93925.53;5107631;28;20430;-67
2022/04/02 04:28:42;;;;;;;5.10;1.33;;;;;;;10.58;53.82;93913.22;5106078;28;20022;-67
2022/04/02 04:31:08;;;;;;;2.20;1.30;;;;;;;10.49;54.47;93930.59;5107057;28;20054;-68
2022/04/02 04:33:34;;;;;;;2.67;1.27;;;;;;;10.46;54.68;93926.44;5106317;28;20027;-67
2022/04/02 04:36:00;;;;;;;3.45;1.38;;;;;;;10.39;55.23;93909.56;5106670;28;20062;-67
2022/04/02 04:38:25;;;;;;;2.78;1.30;;;;;;;10.42;55.15;93910.97;5107563;28;20031;-69
2022/04/02 04:40:50;;;;;;;2.97;1.05;;;;;;;10.44;54.95;93907.06;5106494;28;20433;-69
2022/04/02 04:43:16;;;;;;;2.58;1.20;;;;;;;10.50;54.62;93905.41;5107219;28;20039;-69
2022/04/02 04:45:41;;;;;;;2.00;1.00;;;;;;;10.45;53.96;93926.63;5106905;28;20609;-68
2022/04/02 04:48:07;;;;;;;1.90;1.40;;;;;;;10.54;54.14;93935.28;5106582;28;20034;-67
2022/04/02 04:50:34;;;;;;;2.88;1.10;;;;;;;10.56;54.76;93938.59;5107061;28;20020;-68
2022/04/02 04:52:59;;;;;;;2.38;1.17;;;;;;;10.58;55.11;93947.22;5104308;28;20106;-68
2022/04/02 04:55:25;;;;;;;1.77;1.10;;;;;;;10.78;53.86;93947.13;5107653;28;20015;-68
2022/04/02 04:57:50;;;;;;;4.13;1.45;;;;;;;10.95;53.27;93938.56;5106074;28;20031;-68
2022/04/02 05:00:16;;;;;;;4.57;1.23;;;;;;;11.16;52.51;93945.44;5107361;28;20027;-68
2022/04/02 05:02:45;;;;;;;2.90;1.17;;;;;;;11.33;52.75;93944.91;5106350;28;20023;-68
2022/04/02 05:05:12;;;;;;;2.88;1.75;;;;;;;11.50;52.38;93939.81;5106573;28;20054;-67
2022/04/02 05:07:38;;;;;;;3.72;1.33;;;;;;;11.64;51.97;93935.16;5106479;28;20035;-68
2022/04/02 05:10:04;;;;;;;3.15;1.20;;;;;;;11.83;51.28;93943.25;5105035;28;20024;-69
2022/04/02 05:12:31;;;;;;;1.88;1.20;;;;;;;11.92;51.84;93941.09;5107104;28;20105;-68
2022/04/02 05:14:57;;;;;;;2.45;1.20;;;;;;;12.05;51.50;93945.50;5087623;28;20035;-68
2022/04/02 05:17:22;;;;;;;3.92;1.15;;;;;;;12.22;50.42;93940.38;5105556;28;20032;-67
2022/04/02 05:19:48;;;;;;;4.25;1.00;;;;;;;12.36;49.45;93936.50;5105768;28;20043;-69
2022/04/02 05:22:14;;;;;;;2.85;0.90;;;;;;;12.60;46.72;93928.56;5105093;28;20031;-68
2022/04/02 05:24:39;;;;;;;2.30;1.10;;;;;;;12.76;46.53;93936.22;5105344;28;20508;-68
2022/04/02 05:27:04;;;;;;;4.03;1.70;;;;;;;12.99;45.30;93935.50;5106157;28;20046;-69
2022/04/02 05:29:30;;;;;;;3.80;1.23;;;;;;;13.27;44.19;93931.34;5105179;28;20058;-68
2022/04/02 05:31:55;;;;;;;3.15;1.00;;;;;;;13.46;42.55;93936.66;5104848;28;20016;-68
2022/04/02 05:34:21;;;;;;;3.58;0.90;;;;;;;13.58;42.04;93928.63;5106946;28;20020;-67
2022/04/02 05:36:46;;;;;;;1.38;0.80;;;;;;;13.77;42.08;93934.72;5105574;28;20831;-67
2022/04/02 05:39:12;;;;;;;3.35;1.55;;;;;;;13.82;40.74;93934.84;5104861;28;20016;-68
2022/04/02 05:41:37;;;;;;;4.18;1.20;;;;;;;14.04;40.90;93930.75;5104399;28;20024;-69
2022/04/02 05:44:07;;;;;;;2.72;1.00;;;;;;;14.02;40.20;93932.84;5104952;28;20012;-68
2022/04/02 05:46:33;;;;;;;4.18;1.55;;;;;;;14.31;40.19;93943.72;5105772;28;20034;-69
2022/04/02 05:48:58;;;;;;;3.53;1.13;;;;;;;14.47;40.21;93952.94;5105847;28;20027;-69
2022/04/02 05:51:24;;;;;;;1.50;0.90;;;;;;;14.49;39.17;93947.31;5106024;28;20031;-68
2022/04/02 05:53:50;;;;;;;3.17;1.10;;;;;;;14.76;38.34;93958.38;5105428;28;20027;-69
2022/04/02 05:56:16;;;;;;;2.63;1.00;;;;;;;14.98;38.56;93956.94;5106113;28;20117;-69
2022/04/02 05:58:42;;;;;;;5.88;1.35;;;;;;;14.71;38.63;93944.78;5087154;28;20058;-67
2022/04/02 06:01:07;;;;;;;3.55;1.08;;;;;;;14.87;38.21;93945.09;5104717;28;20046;-68
2022/04/02 06:03:33;;;;;;;2.22;1.08;;;;;;;14.76;38.43;93942.19;5104959;28;20472;-71
2022/04/02 06:05:58;;;;;;;2.00;1.00;;;;;;;14.93;38.17;93947.66;5103856;28;20493;-69
2022/04/02 06:08:24;;;;;;;2.53;0.95;;;;;;;15.13;37.59;93951.81;5105468;28;20031;-69
2022/04/02 06:10:49;;;;;;;2.40;1.00;;;;;;;15.17;37.59;93947.56;5105772;28;20059;-69
2022/04/02 06:13:15;;;;;;;3.78;1.17;;;;;;;15.33;37.50;93956.75;5106054;28;20433;-68
2022/04/02 06:15:40;;;;;;;3.05;1.05;;;;;;;15.53;37.36;93963.56;5103724;28;20020;-70
2022/04/02 06:18:07;;;;;;;2.72;0.90;;;;;;;15.56;36.91;93964.94;5104478;28;20027;-68
2022/04/02 06:20:32;;;;;;;2.00;0.90;;;;;;;15.70;36.21;93951.97;5103515;28;20043;-67
2022/04/02 06:22:58;;;;;;;3.28;1.10;;;;;;;15.77;36.45;93959.88;5105375;28;20076;-67
2022/04/02 06:25:24;;;;;;;2.58;1.10;;;;;;;15.73;36.09;93974.97;5104764;28;20034;-67
2022/04/02 06:27:49;;;;;;;1.48;0.82;;;;;;;15.69;36.01;93963.81;5103906;28;20028;-70
2022/04/02 06:30:18;;;;;;;4.15;1.08;;;;;;;15.66;36.66;93984.06;5105703;28;20043;-67
2022/04/02 06:32:43;;;;;;;2.40;1.10;;;;;;;15.76;36.70;93982.56;5104897;28;20024;-71
2022/04/02 06:35:09;;;;;;;5.55;1.73;;;;;;;16.01;36.41;93986.78;5104620;28;20034;-71
2022/04/02 06:37:38;;;;;;;2.60;1.13;;;;;;;16.18;36.00;93987.59;5103090;28;20019;-70
2022/04/02 06:40:06;;;;;;;3.53;0.77;;;;;;;15.85;36.22;93991.91;5087708;28;20779;-72
2022/04/02 06:42:32;;;;;;;2.63;1.13;;;;;;;15.48;37.21;93995.06;5103823;28;20028;-67
2022/04/02 06:44:57;;;;;;;3.90;1.35;;;;;;;15.49;36.97;93996.72;5104989;28;20032;-69
2022/04/02 06:47:29;;;;;;;3.28;0.90;;;;;;;15.15;37.47;93989.38;5105249;28;20028;-68
2022/04/02 06:49:55;;;;;;;1.98;0.90;;;;;;;15.50;37.03;94001.06;5103429;28;20039;-68
2022/04/02 06:52:20;;;;;;;4.53;1.27;;;;;;;15.80;36.63;93981.00;5105694;28;20031;-69
2022/04/02 06:54:46;;;;;;;1.00;0.73;;;;;;;15.53;36.56;93997.88;5102685;28;20399;-68
2022/04/02 06:57:19;;;;;;;3.50;1.10;;;;;;;15.76;36.31;94004.19;5104022;28;20073;-73
2022/04/02 06:59:45;;;;;;;1.70;0.82;;;;;;;15.75;36.27;94021.50;5104535;28;20034;-70
2022/04/02 07:02:10;;;;;;;1.77;0.80;;;;;;;15.98;36.03;94008.91;5105117;28;20024;-69
2022/04/02 07:04:35;;;;;;;2.42;1.38;;;;;;;16.05;36.21;94009.56;5104860;28;20031;-68
2022/04/02 07:07:01;;;;;;;1.65;1.10;;;;;;;15.82;36.62;94011.31;5104897;28;20036;-69
2022/04/02 07:09:26;;;;;;;3.35;1.00;;;;;;;16.02;35.98;94016.28;5105435;28;20035;-69
2022/04/02 07:11:52;;;;;;;2.20;0.95;;;;;;;16.27;35.20;94025.03;5103194;28;20023;-67
2022/04/02 07:14:17;;;;;;;2.97;0.95;;;;;;;15.92;36.11;94024.19;5105344;28;20024;-69
2022/04/02 07:16:43;;;;;;;9.10;3.60;;;;;;;15.60;36.67;94019.34;5106987;28;20031;-69
2022/04/02 07:19:08;;;;;;;5.93;2.58;;;;;;;15.37;37.25;94019.22;5107385;28;20403;-71
2022/04/02 07:21:34;;;;;;;4.60;1.00;;;;;;;15.36;36.86;94009.47;5107070;28;20032;-70
2022/04/02 07:24:00;;;;;;;2.65;1.00;;;;;;;15.87;35.84;94019.53;5108847;28;20402;-69
2022/04/02 07:26:25;;;;;;;2.08;0.93;;;;;;;16.00;35.99;94033.81;5107829;28;20027;-68
2022/04/02 07:28:51;;;;;;;4.60;1.35;;;;;;;16.10;35.74;94033.16;5108334;28;20023;-69
2022/04/02 07:31:16;;;;;;;2.60;1.00;;;;;;;15.54;36.88;94040.06;5109456;28;20375;-68
2022/04/02 07:33:42;;;;;;;2.03;0.63;;;;;;;15.33;36.90;94043.19;5107976;28;20047;-67
2022/04/02 07:36:33;;;;;;;1.45;0.90;;;;;;;15.62;35.64;94023.41;5108711;28;20027;-68
2022/04/02 07:39:03;;;;;;;2.47;0.85;;;;;;;15.48;36.54;94027.50;5098654;28;20051;-67
2022/04/02 07:42:04;;;;;;;3.45;0.93;;;;;;;15.47;36.89;94033.97;5108206;28;20038;-67
2022/04/02 07:45:05;;;;;;;1.95;0.85;;;;;;;15.73;36.01;94015.50;5108825;28;20023;-67
2022/04/02 07:47:32;;;;;;;2.85;0.95;;;;;;;15.73;35.53;94024.44;5103079;28;20035;-68
2022/04/02 07:50:08;;;;;;;3.08;0.85;;;;;;;15.28;35.92;94017.97;5108004;28;20549;-67
2022/04/02 07:52:36;;;;;;;2.25;0.88;;;;;;;15.05;36.22;94014.28;5107554;28;20023;-68
2022/04/02 07:55:03;;;;;;;7.47;1.10;;;;;;;14.89;36.75;94019.41;5106303;28;20263;-68
2022/04/02 07:57:37;;;;;;;2.80;1.00;;;;;;;14.95;36.72;94026.53;5107218;28;20027;-70
2022/04/02 08:00:04;;;;;;;2.42;1.00;;;;;;;14.79;36.71;94022.69;5106175;28;20032;-68
2022/04/02 08:02:36;;;;;;;2.17;0.90;;;;;;;14.65;36.79;94022.13;5108208;28;20650;-67
2022/04/02 08:05:05;;;;;;;;;;;;;;;14.59;37.24;94023.03;5108472;28;20031;-69
2022/04/02 08:07:32;;;;;;;1.90;0.90;;;;;;;14.67;37.19;94019.97;5107878;28;19911;-67
2022/04/02 08:09:58;;;;;;;3.47;0.90;;;;;;;15.23;36.68;94004.34;5108060;28;20027;-68
2022/04/02 08:12:24;;;;;;;2.38;0.95;;;;;;;15.45;36.39;94005.31;5107205;28;20106;-70
2022/04/02 08:14:50;;;;;;;2.35;1.00;;;;;;;15.72;35.39;94005.78;5106492;28;20436;-69
2022/04/02 08:17:15;;;;;;;2.03;1.10;;;;;;;15.89;35.99;93989.53;5107311;27;20095;-69
2022/04/02 08:19:41;;;;;;;2.22;1.10;;;;;;;15.97;34.84;93999.13;5107438;28;20093;-69
2022/04/02 08:22:06;;;;;;;2.10;1.17;;;;;;;16.18;34.21;94009.22;5107071;28;20097;-70
2022/04/02 08:24:32;;;;;;;3.38;1.05;;;;;;;16.42;34.23;94006.31;5107613;28;20065;-69
2022/04/02 08:27:02;;;;;;;2.58;0.90;;;;;;;16.63;33.76;94005.78;5106648;28;20024;-68
2022/04/02 08:29:35;;;;;;;2.45;0.70;;;;;;;16.67;34.50;94012.31;5107027;28;20445;-69
2022/04/02 08:32:25;;;;;;;2.03;0.85;;;;;;;16.34;32.93;93998.63;5107780;28;20505;-68
2022/04/02 08:35:02;;;;;;;1.23;0.70;;;;;;;16.31;33.76;93994.53;5106941;28;20156;-68
2022/04/02 08:37:37;;;;;;;1.50;0.77;;;;;;;16.16;33.76;94005.13;5106971;28;20436;-68
2022/04/02 08:40:36;;;;;;;7.00;1.10;;;;;;;16.03;34.75;94011.69;5106097;28;20432;-69
2022/04/02 08:43:04;;;;;;;2.35;0.90;;;;;;;15.85;34.10;94010.84;5106355;28;20035;-68
2022/04/02 08:45:32;;;;;;;1.83;0.80;;;;;;;15.66;35.02;94016.47;5107425;28;20078;-68
2022/04/02 08:48:16;;;;;;;3.22;0.90;;;;;;;15.74;33.97;93995.50;5106384;27;20019;-68
2022/04/02 08:50:45;;;;;;;3.17;0.95;;;;;;;15.59;35.12;93996.09;5106915;28;20031;-70
2022/04/02 08:53:39;;;;;;;2.65;0.90;;;;;;;15.47;35.04;94002.38;5107320;27;20024;-68
2022/04/02 08:56:08;;;;;;;2.20;0.93;;;;;;;15.87;34.97;94008.72;5105089;28;20479;-68
2022/04/02 08:58:48;;;;;;;2.42;1.05;;;;;;;15.73;34.54;93992.00;5105528;28;20051;-69
2022/04/02 09:01:23;;;;;;;3.10;1.20;;;;;;;15.68;34.39;94002.72;5106537;28;20036;-68
2022/04/02 09:04:08;;;;;;;5.05;1.08;;;;;;;15.69;35.12;94004.34;5105413;28;20583;-68
2022/04/02 09:07:09;;;;;;;4.10;1.48;;;;;;;15.77;35.16;94008.53;5105951;28;20545;-68
2022/04/02 09:09:56;;;;;;;3.72;1.20;;;;;;;15.77;35.78;94013.94;5023254;28;20037;-69
2022/04/02 09:12:24;;;;;;;1.95;0.80;;;;;;;15.75;34.35;93999.88;5101173;28;20459;-69
2022/04/02 09:15:01;;;;;;;2.50;0.85;;;;;;;15.83;34.92;93991.31;5106997;28;20487;-69
2022/04/02 09:18:12;;;;;;;1.33;0.80;;;;;;;15.92;35.01;93984.47;5105987;28;20032;-69
2022/04/02 09:20:56;;;;;;;4.10;1.17;;;;;;;15.84;34.81;93992.16;5102007;28;20051;-68
2022/04/02 09:23:59;;;;;;;1.88;0.80;;;;;;;16.07;34.80;94007.44;5106799;28;20028;-68
2022/04/02 09:26:33;;;;;;;2.65;0.80;;;;;;;16.06;34.22;94000.38;5104333;28;20180;-69
2022/04/02 09:29:17;;;;;;;2.85;0.77;;;;;;;16.04;35.01;94008.72;5106332;28;20027;-68
2022/04/02 09:32:01;;;;;;;4.18;0.90;;;;;;;15.93;35.03;93996.09;5106562;28;20073;-68
2022/04/02 09:34:51;;;;;;;3.45;0.82;;;;;;;16.15;33.88;93996.19;5105693;28;20410;-69
2022/04/02 09:37:41;;;;;;;2.80;0.95;;;;;;;15.93;34.47;93990.69;5106256;28;20027;-67
2022/04/02 09:40:11;;;;;;;2.08;0.90;;;;;;;16.25;33.77;93973.06;5105830;28;20028;-68
2022/04/02 09:42:43;;;;;;;1.50;0.85;;;;;;;16.32;33.79;93989.94;5106545;28;20027;-68
2022/04/02 09:45:21;;;;;;;2.90;0.82;;;;;;;16.40;33.58;93984.09;5106440;28;20024;-68
2022/04/02 09:47:49;;;;;;;1.92;0.80;;;;;;;16.47;33.96;93967.69;5104145;28;20035;-68
2022/04/02 09:50:19;;;;;;;1.60;0.88;;;;;;;16.68;33.61;93971.47;5106079;28;20032;-68
2022/04/02 09:52:56;;;;;;;1.77;0.80;;;;;;;16.73;32.39;93959.06;5105681;28;20401;-69
2022/04/02 09:55:23;;;;;;;2.45;0.80;;;;;;;16.75;33.11;93963.16;5104048;28;20514;-70
2022/04/02 09:58:07;;;;;;;5.55;1.13;;;;;;;16.89;31.80;93968.19;5088105;28;20058;-69
2022/04/02 10:01:11;;;;;;;2.22;0.95;;;;;;;16.99;32.31;93965.59;5104902;28;20038;-74
2022/04/02 10:03:55;;;;;;;1.50;0.80;;;;;;;16.80;31.28;93955.09;5092959;28;20036;-68
2022/04/02 10:06:20;;;;;;;1.25;0.75;;;;;;;16.93;31.66;93962.03;5105753;28;20020;-68
2022/04/02 10:09:08;;;;;;;1.95;0.93;;;;;;;17.01;32.24;93959.91;5105402;27;20027;-69
2022/04/02 10:11:38;;;;;;;2.97;1.30;;;;;;;16.99;31.25;93960.19;5105966;28;20024;-68
2022/04/02 10:14:03;;;;;;;1.83;1.10;;;;;;;17.14;31.56;93946.03;5105046;28;20110;-68
2022/04/02 10:16:30;;;;;;;2.28;1.20;;;;;;;17.09;31.42;93932.41;5105332;28;20494;-68
2022/04/02 10:19:00;;;;;;;1.70;1.10;;;;;;;17.30;31.20;93940.75;5105559;28;20088;-68
2022/04/02 10:21:30;;;;;;;3.67;1.20;;;;;;;17.44;31.58;93935.75;5104830;28;20044;-68
2022/04/02 10:24:20;;;;;;;1.73;1.05;;;;;;;17.29;30.97;93955.38;5104723;28;20035;-68
2022/04/02 10:26:51;;;;;;;2.13;1.00;;;;;;;17.01;31.33;93949.91;5092874;28;20126;-69
2022/04/02 10:29:41;;;;;;;2.08;1.10;;;;;;;16.92;30.86;93956.88;5104287;28;20043;-69
2022/04/02 10:32:38;;;;;;;1.50;0.90;;;;;;;17.12;30.46;93941.94;5103732;28;20091;-70
2022/04/02 10:35:07;;;;;;;2.92;1.05;;;;;;;17.20;30.62;93956.91;5071342;28;20055;-68
2022/04/02 10:38:01;;;;;;;2.55;1.45;;;;;;;17.33;31.39;93942.16;5104131;28;20038;-68
2022/04/02 10:40:27;;;;;;;2.78;1.10;;;;;;;17.35;30.59;93942.69;5105016;28;20474;-69
2022/04/02 10:42:56;;;;;;;3.47;1.08;;;;;;;17.50;29.57;93926.59;5103872;28;20039;-68
2022/04/02 10:45:22;;;;;;;2.88;1.20;;;;;;;17.36;29.91;93950.56;5104552;28;20020;-67
2022/04/02 10:48:10;;;;;;;1.95;0.90;;;;;;;17.37;30.39;93935.97;5103612;28;20026;-68
2022/04/02 10:50:37;;;;;;;1.52;1.00;;;;;;;17.44;30.66;93926.78;5106287;28;20031;-68
2022/04/02 10:53:03;;;;;;;1.67;0.70;;;;;;;17.18;32.55;93920.06;5109108;28;20098;-67
2022/04/02 10:55:29;;;;;;;2.60;0.80;;;;;;;17.18;33.22;93944.44;5109038;28;20524;-68
2022/04/02 10:58:00;;;;;;;1.92;0.70;;;;;;;17.09;33.14;93912.66;5109089;28;20081;-68
2022/04/02 11:00:26;;;;;;;1.40;0.80;;;;;;;17.01;33.52;93938.25;5109388;28;20035;-68
2022/04/02 11:03:03;;;;;;;1.30;0.80;;;;;;;17.18;33.04;93930.88;5109449;28;20032;-69
2022/04/02 11:05:34;;;;;;;2.13;0.73;;;;;;;17.11;31.27;93941.13;5107417;28;20116;-69
2022/04/02 11:08:07;;;;;;;2.05;0.80;;;;;;;17.08;30.55;93930.78;5108011;28;20028;-68
2022/04/02 11:10:35;;;;;;;3.00;1.00;;;;;;;16.97;30.27;93926.31;5108603;28;20023;-68
2022/04/02 11:13:02;;;;;;;1.60;0.77;;;;;;;16.89;30.74;93947.38;5107625;28;20026;-68
2022/04/02 11:15:27;;;;;;;1.92;0.70;;;;;;;16.89;31.56;93927.59;5109134;28;20100;-68
2022/04/02 11:18:01;;;;;;;1.52;0.80;;;;;;;16.88;31.68;93950.34;5108231;28;20456;-69
2022/04/02 11:20:30;;;;;;;1.08;0.70;;;;;;;16.62;31.89;93929.16;5109200;28;20039;-68
2022/04/02 11:22:57;;;;;;;1.70;0.70;;;;;;;16.55;32.88;93939.38;5108087;28;20027;-69
2022/04/02 11:25:28;;;;;;;2.28;1.00;;;;;;;16.27;33.78;93993.38;5108921;27;20585;-68
2022/04/02 11:27:55;;;;;;;2.17;0.77;;;;;;;15.88;33.82;93987.91;5108404;28;20483;-67
2022/04/02 11:30:20;;;;;;;1.10;0.65;;;;;;;15.47;34.39;93977.22;5107103;28;20405;-67
2022/04/02 11:32:48;;;;;;;2.03;1.15;;;;;;;14.94;36.03;94014.06;5107363;28;20028;-68
2022/04/02 11:35:23;;;;;;;1.35;0.98;;;;;;;14.67;40.84;94052.38;5108252;28;20055;-68
2022/04/02 11:38:18;;;;;;;1.42;0.90;;;;;;;14.25;42.20;94066.00;5107510;28;20023;-68
2022/04/02 11:41:06;;;;;;;1.67;0.82;;;;;;;13.97;45.37;94073.72;5108055;28;20032;-68
2022/04/02 11:43:38;;;;;;;3.13;1.17;;;;;;;13.62;47.17;94085.22;5065999;28;20039;-68
2022/04/02 11:46:11;;;;;;;1.17;0.90;;;;;;;13.06;49.18;94089.63;5108581;28;20422;-68
2022/04/02 11:48:57;;;;;;;7.07;1.35;;;;;;;12.98;51.49;94061.16;5106508;28;20043;-68